Devonia, Tennessee
Current Conditions -  °F | °C
As of 10:17 AM on Wednesday 22 Oct 2014 (Local Time) from KOQT Reporting Station
Broken Clouds Broken Clouds  
Wind Chill: 52°   Ceiling: 2800
Heat Index: 52°   Visibility: 10mi
Dew Point: 40°   Wind: 5mph
Humidity: 63%   Direction: NA
Pressure: 30.23"   Gusts: NA
Location:  36.1665°N, 84.3051°W
Report Text: KOQT 221417Z AUTO VRB04KT 10SM BKN028 11/04 A3023 RMK AO2 T01110044
Loading
Personal Weather Stations






























Interactive Weather Map
Tropical Storm Tracking
New forecast layout! Learn more

10-Day Weather Forecast

Advertisements
Track Severe Weather on mobile